Time;durP1;ratioP1;P1;durP2;ratioP2;P2;SDS_P1;SDS_P2;PMS_P1;PMS_P2;Temp;Humidity;BMP_temperature;BMP_pressure;BME280_temperature;BME280_humidity;BME280_pressure;Samples;Min_cycle;Max_cycle;Signal;HPM_P1;HPM_P2
2021/04/18 00:01:05;;;;;;;7.78;4.30;;;;;;;;;;5073557;28;20138;-65
2021/04/18 00:03:31;;;;;;;5.88;3.80;;;;;;;;;;5073261;28;20033;-65
2021/04/18 00:05:57;;;;;;;7.10;4.38;;;;;;;;;;5074835;28;20024;-64
2021/04/18 00:08:23;;;;;;;6.00;3.75;;;;;;;;;;5075864;28;20021;-66
2021/04/18 00:10:49;;;;;;;7.97;4.25;;;;;;;;;;5075326;28;20048;-64
2021/04/18 00:13:17;;;;;;;7.25;3.50;;;;;;;;;;5073811;28;20384;-64
2021/04/18 00:15:43;;;;;;;6.25;4.00;;;;;;;;;;5073977;28;20028;-65
2021/04/18 00:18:10;;;;;;;6.80;4.20;;;;;;;;;;5071328;28;20043;-65
2021/04/18 00:20:37;;;;;;;6.63;3.72;;;;;;;;;;5077860;28;20032;-65
2021/04/18 00:23:03;;;;;;;5.45;3.50;;;;;;;;;;5074346;28;20472;-65
2021/04/18 00:25:29;;;;;;;5.75;3.53;;;;;;;;;;5074730;28;20031;-66
2021/04/18 00:27:55;;;;;;;5.13;3.25;;;;;;;;;;5074882;28;20471;-66
2021/04/18 00:30:22;;;;;;;6.07;3.50;;;;;;;;;;5071116;28;20017;-65
2021/04/18 00:32:48;;;;;;;8.85;3.88;;;;;;;;;;5076150;28;20024;-66
2021/04/18 00:35:15;;;;;;;5.57;3.90;;;;;;;;;;5075596;28;20127;-65
2021/04/18 00:37:41;;;;;;;6.18;3.30;;;;;;;;;;5074208;28;20468;-66
2021/04/18 00:40:09;;;;;;;4.20;3.00;;;;;;;;;;5073957;28;20031;-65
2021/04/18 00:42:35;;;;;;;4.95;3.65;;;;;;;;;;5072005;28;20120;-66
2021/04/18 00:45:01;;;;;;;6.30;3.55;;;;;;;;;;5073785;28;20020;-66
2021/04/18 00:47:27;;;;;;;5.28;3.50;;;;;;;;;;5075739;28;20536;-65
2021/04/18 00:49:53;;;;;;;5.97;3.67;;;;;;;;;;5074332;28;20020;-65
2021/04/18 00:52:19;;;;;;;5.57;3.90;;;;;;;;;;5074072;28;20486;-65
2021/04/18 00:54:45;;;;;;;5.45;3.55;;;;;;;;;;5073666;28;20099;-65
2021/04/18 00:57:11;;;;;;;6.07;3.50;;;;;;;;;;5068825;28;20052;-64
2021/04/18 00:59:37;;;;;;;5.55;3.35;;;;;;;;;;5077457;28;20130;-65
2021/04/18 01:02:03;;;;;;;5.78;3.55;;;;;;;;;;5074090;28;20475;-66
2021/04/18 01:04:29;;;;;;;6.25;3.50;;;;;;;;;;5073768;28;20059;-66
2021/04/18 01:06:55;;;;;;;6.30;3.33;;;;;;;;;;5073559;28;20048;-65
2021/04/18 01:09:21;;;;;;;6.05;3.67;;;;;;;;;;5070069;28;20033;-65
2021/04/18 01:11:47;;;;;;;7.82;4.07;;;;;;;;;;5075982;28;20116;-65
2021/04/18 01:14:13;;;;;;;5.97;3.78;;;;;;;;;;5074785;28;20483;-65
2021/04/18 01:16:39;;;;;;;6.53;3.85;;;;;;;;;;5073807;28;20090;-64
2021/04/18 01:19:05;;;;;;;5.45;3.70;;;;;;;;;;5073380;28;20086;-64
2021/04/18 01:21:31;;;;;;;5.60;3.65;;;;;;;;;;5071787;28;20029;-64
2021/04/18 01:23:57;;;;;;;5.65;3.30;;;;;;;;;;5073617;28;20059;-64
2021/04/18 01:26:23;;;;;;;5.75;3.20;;;;;;;;;;5074968;28;20127;-65
2021/04/18 01:28:49;;;;;;;6.57;3.55;;;;;;;;;;5073650;28;20111;-65
2021/04/18 01:31:15;;;;;;;5.47;3.50;;;;;;;;;;5073841;28;20103;-65
2021/04/18 01:33:41;;;;;;;5.28;3.25;;;;;;;;;;5071853;28;20491;-64
2021/04/18 01:36:08;;;;;;;6.05;3.22;;;;;;;;;;5070641;28;20057;-64
2021/04/18 01:38:34;;;;;;;5.32;3.47;;;;;;;;;;5076232;28;20099;-64
2021/04/18 01:41:01;;;;;;;6.35;3.45;;;;;;;;;;5071988;28;20135;-64
2021/04/18 01:43:27;;;;;;;6.97;3.65;;;;;;;;;;5073201;28;20033;-64
2021/04/18 01:45:53;;;;;;;5.40;3.45;;;;;;;;;;5072744;28;20028;-65
2021/04/18 01:48:19;;;;;;;6.53;3.65;;;;;;;;;;5069293;28;20086;-64
2021/04/18 01:50:51;;;;;;;7.40;3.90;;;;;;;;;;5075894;28;20032;-66
2021/04/18 01:53:17;;;;;;;5.43;3.30;;;;;;;;;;5075417;28;20031;-65
2021/04/18 01:55:43;;;;;;;5.90;3.80;;;;;;;;;;5072892;28;20549;-65
2021/04/18 01:58:09;;;;;;;6.32;3.60;;;;;;;;;;5072677;28;20503;-64
2021/04/18 02:00:36;;;;;;;7.15;3.88;;;;;;;;;;5071216;28;20486;-64
2021/04/18 02:03:02;;;;;;;6.78;3.95;;;;;;;;;;5071862;28;20033;-64
2021/04/18 02:05:32;;;;;;;5.82;3.80;;;;;;;;;;5074497;28;20025;-64
2021/04/18 02:07:58;;;;;;;6.78;3.53;;;;;;;;;;5072807;28;20050;-64
2021/04/18 02:10:24;;;;;;;5.10;3.30;;;;;;;;;;5072514;28;20519;-64
2021/04/18 02:12:51;;;;;;;5.85;3.50;;;;;;;;;;5072987;28;20028;-64
2021/04/18 02:15:17;;;;;;;5.80;3.85;;;;;;;;;;5067495;28;20059;-64
2021/04/18 02:17:43;;;;;;;5.93;3.70;;;;;;;;;;5075811;28;20470;-64
2021/04/18 02:20:10;;;;;;;5.50;3.55;;;;;;;;;;5072608;28;20476;-64
2021/04/18 02:22:36;;;;;;;5.10;3.35;;;;;;;;;;5072293;28;20058;-64
2021/04/18 02:25:03;;;;;;;5.50;3.53;;;;;;;;;;5072230;28;20034;-64
2021/04/18 02:27:29;;;;;;;5.25;3.65;;;;;;;;;;5070295;28;20804;-64
2021/04/18 02:29:55;;;;;;;5.75;3.60;;;;;;;;;;5072659;28;20046;-64
2021/04/18 02:32:22;;;;;;;5.20;3.63;;;;;;;;;;5073501;28;20032;-64
2021/04/18 02:34:48;;;;;;;5.65;3.30;;;;;;;;;;5072343;28;20056;-64
2021/04/18 02:37:14;;;;;;;5.68;3.55;;;;;;;;;;5072319;28;20179;-64
2021/04/18 02:39:40;;;;;;;4.78;3.28;;;;;;;;;;5071611;28;20020;-64
2021/04/18 02:42:06;;;;;;;5.95;3.38;;;;;;;;;;5069817;28;20159;-64
2021/04/18 02:44:32;;;;;;;5.13;3.20;;;;;;;;;;5074732;28;20377;-64
2021/04/18 02:46:59;;;;;;;5.03;3.20;;;;;;;;;;5072156;28;20085;-64
2021/04/18 02:49:25;;;;;;;5.32;3.25;;;;;;;;;;5072358;28;20040;-64
2021/04/18 02:51:51;;;;;;;5.80;3.35;;;;;;;;;;5071933;28;20032;-64
2021/04/18 02:54:17;;;;;;;5.63;3.38;;;;;;;;;;5068316;28;20471;-64
2021/04/18 02:56:43;;;;;;;6.70;3.30;;;;;;;;;;5074964;28;20036;-64
2021/04/18 02:59:09;;;;;;;5.60;3.20;;;;;;;;;;5072116;28;20052;-64
2021/04/18 03:01:35;;;;;;;5.55;3.47;;;;;;;;;;5072448;28;20063;-63
2021/04/18 03:04:01;;;;;;;7.32;3.78;;;;;;;;;;5071805;28;20032;-64
2021/04/18 03:06:27;;;;;;;5.93;3.55;;;;;;;;;;5069744;28;20112;-64
2021/04/18 03:08:53;;;;;;;7.13;3.60;;;;;;;;;;5072892;28;20117;-64
2021/04/18 03:11:19;;;;;;;6.97;3.60;;;;;;;;;;5072922;28;20462;-63
2021/04/18 03:13:45;;;;;;;7.00;3.75;;;;;;;;;;5072013;28;20644;-64
2021/04/18 03:16:11;;;;;;;7.05;3.65;;;;;;;;;;5071855;28;20040;-64
2021/04/18 03:18:37;;;;;;;6.93;3.67;;;;;;;;;;5070627;28;20024;-64
2021/04/18 03:21:04;;;;;;;6.28;3.30;;;;;;;;;;5070835;28;20028;-64
2021/04/18 03:23:30;;;;;;;5.38;3.40;;;;;;;;;;5073886;28;20104;-64
2021/04/18 03:25:56;;;;;;;5.22;3.33;;;;;;;;;;5070783;28;20480;-64
2021/04/18 03:28:22;;;;;;;5.55;3.45;;;;;;;;;;5071828;28;20040;-64
2021/04/18 03:30:48;;;;;;;10.27;4.13;;;;;;;;;;5073300;28;20040;-64
2021/04/18 03:33:14;;;;;;;5.22;3.75;;;;;;;;;;5067834;28;20033;-64
2021/04/18 03:35:40;;;;;;;6.10;3.50;;;;;;;;;;5077430;28;20025;-64
2021/04/18 03:38:09;;;;;;;6.70;3.67;;;;;;;;;;5075304;28;20056;-64
2021/04/18 03:40:35;;;;;;;4.47;3.10;;;;;;;;;;5075351;28;20020;-64
2021/04/18 03:43:01;;;;;;;5.10;3.20;;;;;;;;;;5075328;28;20039;-64
2021/04/18 03:45:27;;;;;;;6.68;3.50;;;;;;;;;;5071719;28;20033;-64
2021/04/18 03:47:53;;;;;;;5.47;3.30;;;;;;;;;;5075578;28;20055;-64
2021/04/18 03:50:19;;;;;;;5.65;3.65;;;;;;;;;;5076713;28;20021;-64
2021/04/18 03:52:45;;;;;;;5.00;3.35;;;;;;;;;;5075155;28;20035;-64
2021/04/18 03:55:11;;;;;;;5.65;3.13;;;;;;;;;;5075393;28;20024;-64
2021/04/18 03:57:37;;;;;;;5.80;3.40;;;;;;;;;;5073591;28;20135;-64
2021/04/18 04:00:07;;;;;;;5.30;3.33;;;;;;;;;;5073556;28;20479;-64
2021/04/18 04:02:34;;;;;;;5.50;3.45;;;;;;;;;;5077922;28;20059;-64
2021/04/18 04:04:59;;;;;;;5.80;3.53;;;;;;;;;;5074956;28;20028;-64
2021/04/18 04:07:25;;;;;;;4.18;2.97;;;;;;;;;;5075340;28;20486;-64
2021/04/18 04:09:51;;;;;;;3.90;2.72;;;;;;;;;;5075433;28;20090;-65
2021/04/18 04:12:18;;;;;;;5.00;3.00;;;;;;;;;;5070979;28;20033;-64
2021/04/18 04:14:44;;;;;;;5.00;3.40;;;;;;;;;;5077948;28;20024;-64
2021/04/18 04:17:10;;;;;;;5.68;3.53;;;;;;;;;;5074945;28;20539;-64
2021/04/18 04:19:36;;;;;;;5.18;3.30;;;;;;;;;;5075326;28;20028;-64
2021/04/18 04:22:02;;;;;;;6.93;4.10;;;;;;;;;;5074762;28;20036;-64
2021/04/18 04:24:28;;;;;;;8.15;4.15;;;;;;;;;;5072465;28;20025;-64
2021/04/18 04:26:54;;;;;;;5.85;3.70;;;;;;;;;;5075336;28;20146;-64
2021/04/18 04:29:20;;;;;;;6.28;3.67;;;;;;;;;;5075394;28;20067;-64
2021/04/18 04:31:46;;;;;;;6.60;3.35;;;;;;;;;;5074367;28;20433;-66
2021/04/18 04:34:12;;;;;;;5.57;3.35;;;;;;;;;;5074857;28;20108;-66
2021/04/18 04:36:38;;;;;;;5.97;3.30;;;;;;;;;;5073457;28;20052;-68
2021/04/18 04:39:06;;;;;;;5.03;3.45;;;;;;;;;;5072824;28;20037;-68
2021/04/18 04:41:32;;;;;;;5.60;3.22;;;;;;;;;;5076448;28;20031;-65
2021/04/18 04:43:58;;;;;;;5.18;3.25;;;;;;;;;;5075730;28;20032;-64
2021/04/18 04:46:24;;;;;;;3.83;2.85;;;;;;;;;;5069021;28;20032;-65
2021/04/18 04:48:50;;;;;;;6.28;3.50;;;;;;;;;;5074512;28;20028;-65
2021/04/18 04:51:16;;;;;;;6.13;3.42;;;;;;;;;;5082153;28;20120;-65
2021/04/18 04:53:42;;;;;;;5.47;3.30;;;;;;;;;;5077552;28;20514;-65
2021/04/18 04:56:08;;;;;;;6.13;3.53;;;;;;;;;;5074060;28;20068;-64
2021/04/18 04:58:34;;;;;;;6.15;3.60;;;;;;;;;;5073879;28;20035;-65
2021/04/18 05:01:00;;;;;;;5.90;3.70;;;;;;;;;;5079250;28;20028;-65
2021/04/18 05:03:27;;;;;;;6.10;3.40;;;;;;;;;;5069512;28;20063;-65
2021/04/18 05:05:54;;;;;;;5.43;3.47;;;;;;;;;;5069241;28;20024;-65
2021/04/18 05:08:20;;;;;;;5.78;3.50;;;;;;;;;;5075310;28;20268;-70
2021/04/18 05:10:46;;;;;;;5.13;3.35;;;;;;;;;;5079604;28;20036;-68
2021/04/18 05:13:12;;;;;;;5.03;3.00;;;;;;;;;;5081533;28;20075;-68
2021/04/18 05:15:38;;;;;;;5.63;3.40;;;;;;;;;;5070950;28;20402;-70
2021/04/18 05:18:04;;;;;;;4.53;3.05;;;;;;;;;;5070438;28;20041;-69
2021/04/18 05:20:31;;;;;;;5.85;3.10;;;;;;;;;;5087266;28;20050;-68
2021/04/18 05:22:57;;;;;;;5.85;3.35;;;;;;;;;;5075339;28;20036;-68
2021/04/18 05:25:23;;;;;;;5.38;3.13;;;;;;;;;;5073100;28;20044;-69
2021/04/18 05:27:49;;;;;;;4.25;2.90;;;;;;;;;;5063843;28;20032;-69
2021/04/18 05:30:15;;;;;;;7.70;3.45;;;;;;;;;;5073406;28;20081;-67
2021/04/18 05:32:41;;;;;;;5.50;2.95;;;;;;;;;;5076859;28;20037;-68
2021/04/18 05:35:08;;;;;;;5.18;2.78;;;;;;;;;;5073514;28;20087;-69
2021/04/18 05:37:34;;;;;;;5.03;3.05;;;;;;;;;;5072833;28;20453;-69
2021/04/18 05:40:00;;;;;;;4.28;2.95;;;;;;;;;;5073243;28;20039;-69
2021/04/18 05:42:26;;;;;;;5.28;2.88;;;;;;;;;;5072679;28;20040;-69
2021/04/18 05:44:52;;;;;;;4.20;2.92;;;;;;;;;;5089343;28;20027;-70
2021/04/18 05:47:18;;;;;;;4.00;2.78;;;;;;;;;;5069071;28;20434;-70
2021/04/18 05:49:44;;;;;;;4.45;2.67;;;;;;;;;;5072902;28;20032;-70
2021/04/18 05:52:10;;;;;;;4.60;2.72;;;;;;;;;;5073077;28;20036;-70
2021/04/18 05:54:35;;;;;;;4.00;2.80;;;;;;;;;;5080433;28;20032;-69
2021/04/18 05:57:02;;;;;;;3.95;3.00;;;;;;;;;;5070922;28;20090;-72
2021/04/18 05:59:28;;;;;;;4.80;3.10;;;;;;;;;;5072819;28;20111;-68
2021/04/18 06:01:54;;;;;;;4.40;2.63;;;;;;;;;;5072984;28;20064;-69
2021/04/18 06:04:20;;;;;;;6.32;3.20;;;;;;;;;;5073784;28;20035;-68
2021/04/18 06:06:46;;;;;;;4.50;3.10;;;;;;;;;;5072167;28;20040;-68
2021/04/18 06:09:12;;;;;;;4.88;3.10;;;;;;;;;;5068936;28;20033;-69
2021/04/18 06:11:37;;;;;;;5.47;2.83;;;;;;;;;;5069300;28;20024;-66
2021/04/18 06:14:03;;;;;;;3.95;2.60;;;;;;;;;;5083551;28;20024;-67
2021/04/18 06:16:29;;;;;;;3.83;2.20;;;;;;;;;;5077781;28;20387;-69
2021/04/18 06:18:55;;;;;;;5.93;2.50;;;;;;;;;;5071018;28;20036;-72
2021/04/18 06:21:21;;;;;;;4.07;2.80;;;;;;;;;;5069199;28;20016;-69
2021/04/18 06:23:47;;;;;;;4.50;2.60;;;;;;;;;;5074796;28;20025;-71
2021/04/18 06:26:13;;;;;;;3.70;2.53;;;;;;;;;;5072861;28;20024;-68
2021/04/18 06:28:40;;;;;;;3.38;2.25;;;;;;;;;;5072818;28;20021;-71
2021/04/18 06:31:06;;;;;;;4.55;2.78;;;;;;;;;;5072584;28;20032;-70
2021/04/18 06:33:32;;;;;;;3.70;2.40;;;;;;;;;;5069184;28;20021;-70
2021/04/18 06:35:58;;;;;;;4.30;2.40;;;;;;;;;;5071965;28;20028;-71
2021/04/18 06:38:24;;;;;;;3.50;2.50;;;;;;;;;;5072312;28;20017;-70
2021/04/18 06:40:51;;;;;;;3.35;2.03;;;;;;;;;;5072204;28;20484;-69
2021/04/18 06:43:20;;;;;;;2.30;1.85;;;;;;;;;;5072261;28;20475;-71
2021/04/18 06:45:49;;;;;;;5.10;3.08;;;;;;;;;;5072179;28;20035;-71
2021/04/18 06:48:15;;;;;;;9.38;4.57;;;;;;;;;;5051827;28;20094;-66
2021/04/18 06:50:41;;;;;;;6.60;3.22;;;;;;;;;;5075642;28;20060;-68
2021/04/18 06:53:06;;;;;;;4.90;3.35;;;;;;;;;;5071922;28;20036;-69
2021/04/18 06:55:33;;;;;;;7.13;3.33;;;;;;;;;;5072356;28;20021;-68
2021/04/18 06:57:59;;;;;;;4.35;2.78;;;;;;;;;;5072093;28;20032;-69
2021/04/18 07:00:25;;;;;;;3.30;2.47;;;;;;;;;;5074210;28;20099;-69
2021/04/18 07:02:51;;;;;;;2.97;2.10;;;;;;;;;;5075206;28;20029;-70
2021/04/18 07:05:19;;;;;;;3.00;2.30;;;;;;;;;;5071443;28;20036;-69
2021/04/18 07:07:46;;;;;;;4.05;2.15;;;;;;;;;;5070716;28;20024;-70
2021/04/18 07:10:25;;;;;;;3.05;2.15;;;;;;;;;;5074186;28;20090;-70
2021/04/18 07:12:51;;;;;;;4.35;2.80;;;;;;;;;;5077333;28;20541;-69
2021/04/18 07:15:35;;;;;;;3.25;2.38;;;;;;;;;;5068661;28;20067;-69
2021/04/18 07:18:01;;;;;;;3.25;2.33;;;;;;;;;;5069333;28;20506;-69
2021/04/18 07:20:27;;;;;;;3.22;2.40;;;;;;;;;;5076563;28;20111;-69
2021/04/18 07:22:53;;;;;;;4.13;2.85;;;;;;;;;;5082719;28;20458;-69
2021/04/18 07:25:29;;;;;;;3.75;2.40;;;;;;;;;;5075556;28;20068;-69
2021/04/18 07:27:55;;;;;;;3.75;2.40;;;;;;;;;;5074014;28;20035;-68
2021/04/18 07:30:23;;;;;;;4.35;2.88;;;;;;;;;;5071117;28;20024;-69
2021/04/18 07:33:02;;;;;;;5.68;3.05;;;;;;;;;;5082930;28;20024;-69
2021/04/18 07:35:46;;;;;;;4.85;2.85;;;;;;;;;;5075887;28;20029;-69
2021/04/18 07:38:28;;;;;;;4.50;3.17;;;;;;;;;;5066336;28;20041;-68
2021/04/18 07:40:55;;;;;;;5.65;3.70;;;;;;;;;;5074450;28;20037;-67
2021/04/18 07:43:22;;;;;;;5.03;3.50;;;;;;;;;;5077021;28;20029;-67
2021/04/18 07:45:49;;;;;;;5.85;3.72;;;;;;;;;;5073031;28;20477;-67
2021/04/18 07:48:16;;;;;;;5.43;3.65;;;;;;;;;;5068448;28;20054;-69
2021/04/18 07:50:43;;;;;;;5.30;3.42;;;;;;;;;;5067694;28;20032;-69
2021/04/18 07:53:09;;;;;;;4.95;3.50;;;;;;;;;;5084700;28;20031;-69
2021/04/18 07:55:36;;;;;;;6.32;4.10;;;;;;;;;;5079837;28;20120;-67
2021/04/18 07:58:03;;;;;;;5.38;3.80;;;;;;;;;;5075012;28;20378;-69
2021/04/18 08:00:29;;;;;;;7.13;5.07;;;;;;;;;;5071981;28;20027;-67
2021/04/18 08:02:55;;;;;;;8.93;5.40;;;;;;;;;;5081976;28;20483;-67
2021/04/18 08:05:24;;;;;;;10.88;6.63;;;;;;;;;;5075980;28;20028;-68
2021/04/18 08:07:59;;;;;;;7.70;5.80;;;;;;;;;;5074975;28;20493;-67
2021/04/18 08:10:38;;;;;;;9.25;6.70;;;;;;;;;;5075097;28;20394;-67
2021/04/18 08:13:07;;;;;;;7.78;6.13;;;;;;;;;;5072200;28;20100;-67
2021/04/18 08:15:35;;;;;;;8.77;5.82;;;;;;;;;;5072298;28;20025;-67
2021/04/18 08:18:03;;;;;;;7.10;5.35;;;;;;;;;;5073995;28;20043;-67
2021/04/18 08:20:34;;;;;;;8.38;5.63;;;;;;;;;;5075865;28;20020;-69
2021/04/18 08:23:04;;;;;;;9.60;5.63;;;;;;;;;;5074737;28;20036;-69
2021/04/18 08:25:31;;;;;;;12.80;5.53;;;;;;;;;;5074813;28;20035;-69
2021/04/18 08:28:07;;;;;;;10.55;6.20;;;;;;;;;;5074545;28;20138;-69
2021/04/18 08:30:52;;;;;;;8.82;6.50;;;;;;;;;;5072498;28;20024;-69
2021/04/18 08:33:53;;;;;;;11.73;7.13;;;;;;;;;;5054772;28;20024;-68
2021/04/18 08:36:22;;;;;;;11.73;7.90;;;;;;;;;;4996307;28;20599;-68
2021/04/18 08:38:49;;;;;;;13.48;8.20;;;;;;;;;;5048431;28;20049;-68
2021/04/18 08:41:16;;;;;;;10.00;7.73;;;;;;;;;;5075450;28;20087;-68
2021/04/18 08:43:43;;;;;;;11.48;8.32;;;;;;;;;;5074501;28;20024;-68
2021/04/18 08:46:09;;;;;;;10.77;8.57;;;;;;;;;;5074202;28;20051;-68
2021/04/18 08:48:35;;;;;;;10.68;8.00;;;;;;;;;;5072242;28;20025;-68
2021/04/18 08:51:06;;;;;;;11.48;8.55;;;;;;;;;;5073712;28;20426;-68
2021/04/18 08:53:50;;;;;;;11.95;9.50;;;;;;;;;;5076305;28;20471;-68
2021/04/18 08:56:16;;;;;;;15.57;11.77;;;;;;;;;;5075097;28;20475;-68
2021/04/18 08:58:42;;;;;;;14.18;10.57;;;;;;;;;;5073861;28;20107;-68
2021/04/18 09:01:09;;;;;;;15.23;11.70;;;;;;;;;;5074093;28;20029;-67
2021/04/18 09:03:36;;;;;;;15.52;11.48;;;;;;;;;;5072070;28;20032;-68
2021/04/18 09:06:03;;;;;;;18.80;12.63;;;;;;;;;;5071430;28;20052;-68
2021/04/18 09:08:29;;;;;;;18.48;14.55;;;;;;;;;;5087528;28;20024;-68
2021/04/18 09:11:05;;;;;;;22.05;15.82;;;;;;;;;;5069518;28;20017;-68
2021/04/18 09:13:35;;;;;;;19.50;14.63;;;;;;;;;;5072320;28;20028;-68
2021/04/18 09:16:01;;;;;;;18.20;13.82;;;;;;;;;;5072544;28;20469;-68
2021/04/18 09:18:27;;;;;;;21.00;16.17;;;;;;;;;;5083553;28;20108;-68
2021/04/18 09:21:11;;;;;;;19.20;14.07;;;;;;;;;;5073268;28;20061;-68
2021/04/18 09:23:56;;;;;;;19.88;14.45;;;;;;;;;;5073435;28;20357;-68
2021/04/18 09:26:22;;;;;;;18.83;13.45;;;;;;;;;;5082968;28;20378;-68
2021/04/18 09:29:07;;;;;;;19.20;14.23;;;;;;;;;;5075642;28;20058;-68
2021/04/18 09:31:33;;;;;;;19.08;13.98;;;;;;;;;;5072101;28;20469;-68
2021/04/18 09:34:06;;;;;;;22.25;15.55;;;;;;;;;;5074721;28;20047;-68
2021/04/18 09:36:32;;;;;;;19.33;14.00;;;;;;;;;;5081953;28;20049;-68
2021/04/18 09:38:59;;;;;;;18.85;13.30;;;;;;;;;;5068362;28;20024;-68
2021/04/18 09:41:26;;;;;;;19.10;13.70;;;;;;;;;;5073536;28;20032;-68
2021/04/18 09:43:56;;;;;;;15.98;13.05;;;;;;;;;;5072147;28;20399;-68
2021/04/18 09:46:23;;;;;;;18.42;12.90;;;;;;;;;;5076129;28;20035;-68
2021/04/18 09:48:59;;;;;;;19.55;14.40;;;;;;;;;;5081269;28;20024;-68
2021/04/18 09:51:25;;;;;;;17.92;12.85;;;;;;;;;;5059153;28;20108;-68
2021/04/18 09:54:02;;;;;;;16.63;12.05;;;;;;;;;;5071556;28;20021;-68
2021/04/18 09:56:28;;;;;;;17.58;12.40;;;;;;;;;;5080683;28;20212;-68
2021/04/18 09:58:54;;;;;;;18.75;12.20;;;;;;;;;;5062630;28;20118;-68
2021/04/18 10:01:23;;;;;;;15.77;10.80;;;;;;;;;;5071099;28;20463;-67
2021/04/18 10:03:49;;;;;;;17.83;13.18;;;;;;;;;;5069855;28;20031;-68
2021/04/18 10:06:15;;;;;;;16.17;11.90;;;;;;;;;;5069132;28;20456;-68
2021/04/18 10:08:41;;;;;;;14.48;11.10;;;;;;;;;;5073238;28;20373;-68
2021/04/18 10:11:10;;;;;;;15.35;12.00;;;;;;;;;;5061290;28;20021;-69
2021/04/18 10:13:51;;;;;;;14.75;11.05;;;;;;;;;;5071132;28;20467;-68
2021/04/18 10:16:18;;;;;;;15.13;11.43;;;;;;;;;;5075321;28;20036;-67
2021/04/18 10:19:02;;;;;;;12.70;9.55;;;;;;;;;;5083095;28;20490;-67
2021/04/18 10:21:29;;;;;;;16.77;10.98;;;;;;;;;;5043644;28;20029;-67
2021/04/18 10:23:55;;;;;;;15.00;11.52;;;;;;;;;;5070634;28;20422;-67
2021/04/18 10:26:22;;;;;;;16.55;11.57;;;;;;;;;;5078421;28;20024;-66
2021/04/18 10:28:49;;;;;;;15.57;10.95;;;;;;;;;;5075231;28;20016;-67
2021/04/18 10:31:16;;;;;;;18.25;11.75;;;;;;;;;;5072073;28;20032;-67
2021/04/18 10:33:42;;;;;;;16.05;11.45;;;;;;;;;;5071313;28;20023;-66
2021/04/18 10:36:09;;;;;;;16.45;10.35;;;;;;;;;;5059888;28;20056;-66
2021/04/18 10:38:35;;;;;;;14.10;10.57;;;;;;;;;;5074149;28;20036;-66
2021/04/18 10:41:01;;;;;;;13.25;9.52;;;;;;;;;;5070736;28;20099;-67
2021/04/18 10:43:27;;;;;;;14.10;8.75;;;;;;;;;;5069576;28;20029;-66
2021/04/18 10:45:53;;;;;;;11.10;8.52;;;;;;;;;;5070478;28;20367;-66
2021/04/18 10:48:19;;;;;;;12.20;8.55;;;;;;;;;;5082434;28;20036;-67
2021/04/18 10:50:46;;;;;;;12.00;7.88;;;;;;;;;;5074017;28;20031;-67
2021/04/18 10:53:12;;;;;;;13.02;8.45;;;;;;;;;;5072972;28;20491;-67
2021/04/18 10:55:38;;;;;;;12.82;9.18;;;;;;;;;;5072107;28;20025;-67
2021/04/18 10:58:04;;;;;;;9.82;7.38;;;;;;;;;;5071905;28;20055;-67
2021/04/18 11:00:30;;;;;;;11.60;8.25;;;;;;;;;;5069543;28;20025;-67
2021/04/18 11:02:56;;;;;;;10.93;7.85;;;;;;;;;;5072146;28;20103;-69
2021/04/18 11:05:22;;;;;;;12.20;8.00;;;;;;;;;;5073170;28;20104;-71
2021/04/18 11:07:49;;;;;;;9.70;8.25;;;;;;;;;;5072213;28;20025;-70
2021/04/18 11:10:15;;;;;;;10.13;7.22;;;;;;;;;;5072096;28;20031;-71
2021/04/18 11:12:42;;;;;;;10.30;6.85;;;;;;;;;;5070077;28;20123;-67
2021/04/18 11:15:11;;;;;;;12.30;8.60;;;;;;;;;;5069206;28;20032;-69
2021/04/18 11:17:38;;;;;;;9.77;7.10;;;;;;;;;;5074465;28;20110;-68
2021/04/18 11:20:08;;;;;;;11.02;7.65;;;;;;;;;;5071830;28;20483;-69
2021/04/18 11:22:37;;;;;;;9.88;7.78;;;;;;;;;;5071819;28;20060;-69
2021/04/18 11:25:03;;;;;;;11.23;7.68;;;;;;;;;;5071011;28;20028;-69
2021/04/18 11:27:29;;;;;;;10.13;7.57;;;;;;;;;;5068978;28;20120;-69
2021/04/18 11:29:55;;;;;;;10.48;7.28;;;;;;;;;;5070303;28;20354;-68
2021/04/18 11:32:21;;;;;;;10.95;7.22;;;;;;;;;;5070895;28;20094;-69
2021/04/18 11:34:47;;;;;;;10.07;7.88;;;;;;;;;;5069668;28;20024;-68
2021/04/18 11:37:14;;;;;;;10.38;7.13;;;;;;;;;;5069523;28;20067;-68
2021/04/18 11:39:40;;;;;;;10.98;7.28;;;;;;;;;;5068237;28;20012;-68
2021/04/18 11:42:06;;;;;;;11.85;7.90;;;;;;;;;;5067217;28;20115;-69
2021/04/18 11:44:33;;;;;;;11.32;8.13;;;;;;;;;;5073416;28;20025;-68
2021/04/18 11:46:59;;;;;;;11.70;8.98;;;;;;;;;;5071279;28;20455;-69
2021/04/18 11:49:25;;;;;;;13.00;8.20;;;;;;;;;;5071598;28;20095;-69
2021/04/18 11:51:51;;;;;;;11.05;7.60;;;;;;;;;;5071529;28;20032;-69
2021/04/18 11:54:17;;;;;;;10.68;7.43;;;;;;;;;;5067094;28;20017;-69
2021/04/18 11:56:43;;;;;;;8.93;6.63;;;;;;;;;;5076631;28;20029;-69
2021/04/18 11:59:09;;;;;;;9.27;7.28;;;;;;;;;;5074863;28;20027;-69
2021/04/18 12:01:35;;;;;;;10.38;6.10;;;;;;;;;;5073844;28;20025;-69
2021/04/18 12:04:01;;;;;;;8.63;6.60;;;;;;;;;;5074789;28;20035;-69
2021/04/18 12:06:27;;;;;;;9.45;6.63;;;;;;;;;;5072090;28;20047;-68
2021/04/18 12:08:53;;;;;;;9.57;6.45;;;;;;;;;;5075373;28;20466;-69
2021/04/18 12:11:20;;;;;;;9.18;6.28;;;;;;;;;;5075833;28;20487;-68
2021/04/18 12:13:46;;;;;;;9.80;6.45;;;;;;;;;;5074725;28;20028;-69
2021/04/18 12:16:14;;;;;;;9.10;5.97;;;;;;;;;;5074550;28;20020;-69
2021/04/18 12:18:41;;;;;;;9.85;5.90;;;;;;;;;;5073857;28;20035;-69
2021/04/18 12:21:07;;;;;;;9.55;6.03;;;;;;;;;;5072421;28;20052;-68
2021/04/18 12:23:33;;;;;;;7.85;6.00;;;;;;;;;;5077317;28;20036;-69
2021/04/18 12:25:59;;;;;;;9.52;6.60;;;;;;;;;;5073998;28;20028;-68
2021/04/18 12:28:26;;;;;;;8.73;5.55;;;;;;;;;;5074481;28;20020;-68
2021/04/18 12:30:52;;;;;;;7.32;4.70;;;;;;;;;;5074591;28;20050;-68
2021/04/18 12:33:18;;;;;;;9.00;5.70;;;;;;;;;;5069781;28;20021;-69
2021/04/18 12:35:44;;;;;;;6.15;4.50;;;;;;;;;;5077776;28;20484;-69
2021/04/18 12:38:10;;;;;;;8.65;5.25;;;;;;;;;;5074036;28;20089;-69
2021/04/18 12:40:36;;;;;;;8.02;5.32;;;;;;;;;;5074254;28;20498;-69
2021/04/18 12:43:02;;;;;;;8.05;4.90;;;;;;;;;;5074083;28;20387;-69
2021/04/18 12:45:28;;;;;;;6.90;5.05;;;;;;;;;;5071135;28;20063;-70
2021/04/18 12:47:54;;;;;;;7.18;4.75;;;;;;;;;;5074822;28;20039;-69
2021/04/18 12:50:20;;;;;;;6.57;4.53;;;;;;;;;;5074134;28;20020;-69
2021/04/18 12:52:46;;;;;;;6.03;4.10;;;;;;;;;;5073947;28;20082;-70
2021/04/18 12:55:12;;;;;;;6.40;4.28;;;;;;;;;;5073695;28;20024;-70
2021/04/18 12:57:38;;;;;;;4.82;3.40;;;;;;;;;;5073069;28;20035;-70
2021/04/18 13:00:07;;;;;;;6.18;3.75;;;;;;;;;;5072228;28;20107;-70
2021/04/18 13:02:32;;;;;;;;;;;;;;;;;;5076603;28;20475;-70
2021/04/18 13:05:00;;;;;;;6.15;3.80;;;;;;;;;;5073651;28;20049;-70
2021/04/18 13:07:28;;;;;;;4.75;3.17;;;;;;;;;;5073198;28;20485;-69
2021/04/18 13:09:54;;;;;;;4.63;3.15;;;;;;;;;;5075061;28;20032;-70
2021/04/18 13:12:20;;;;;;;4.20;2.78;;;;;;;;;;5069992;28;20099;-70
2021/04/18 13:14:46;;;;;;;3.38;2.60;;;;;;;;;;5076718;28;20024;-70
2021/04/18 13:17:12;;;;;;;4.60;2.65;;;;;;;;;;5075493;28;20525;-71
2021/04/18 13:19:38;;;;;;;5.72;2.75;;;;;;;;;;5072922;28;20052;-71
2021/04/18 13:22:04;;;;;;;5.68;3.17;;;;;;;;;;5073445;28;20024;-71
2021/04/18 13:24:30;;;;;;;4.50;3.10;;;;;;;;;;5071157;28;20028;-70
2021/04/18 13:26:56;;;;;;;4.72;3.25;;;;;;;;;;5073163;28;20099;-71
2021/04/18 13:29:22;;;;;;;4.35;2.92;;;;;;;;;;5074753;28;20052;-70
2021/04/18 13:31:48;;;;;;;6.75;2.78;;;;;;;;;;5073402;28;20379;-71
2021/04/18 13:34:14;;;;;;;4.07;2.55;;;;;;;;;;5073329;28;20035;-70
2021/04/18 13:36:39;;;;;;;3.80;2.72;;;;;;;;;;5071511;28;20525;-70
2021/04/18 13:39:06;;;;;;;3.97;2.50;;;;;;;;;;5071118;28;20124;-71
2021/04/18 13:41:32;;;;;;;3.78;2.47;;;;;;;;;;5091097;28;20021;-70
2021/04/18 13:43:59;;;;;;;3.25;2.55;;;;;;;;;;5073267;28;20028;-70
2021/04/18 13:46:24;;;;;;;3.88;2.50;;;;;;;;;;5073091;28;20025;-70
2021/04/18 13:48:50;;;;;;;4.10;2.33;;;;;;;;;;5072270;28;20028;-70
2021/04/18 13:51:16;;;;;;;3.72;2.20;;;;;;;;;;5068580;28;20028;-70
2021/04/18 13:53:42;;;;;;;2.58;1.95;;;;;;;;;;5076669;28;20028;-70
2021/04/18 13:56:08;;;;;;;2.97;2.20;;;;;;;;;;5072793;28;20032;-69
2021/04/18 13:58:35;;;;;;;3.28;2.10;;;;;;;;;;5072313;28;20028;-70
2021/04/18 14:01:01;;;;;;;3.63;2.45;;;;;;;;;;5072593;28;20103;-70
2021/04/18 14:03:27;;;;;;;4.85;2.80;;;;;;;;;;5069831;28;20159;-70
2021/04/18 14:05:53;;;;;;;3.95;2.30;;;;;;;;;;5073211;28;20115;-70
2021/04/18 14:08:19;;;;;;;4.68;2.50;;;;;;;;;;5073705;28;20021;-70
2021/04/18 14:10:45;;;;;;;4.00;2.70;;;;;;;;;;5072832;28;20384;-70
2021/04/18 14:13:10;;;;;;;4.20;2.60;;;;;;;;;;5072037;28;20029;-70
2021/04/18 14:15:36;;;;;;;3.30;2.35;;;;;;;;;;5070405;28;20499;-70
2021/04/18 14:18:03;;;;;;;3.75;2.22;;;;;;;;;;5071100;28;20066;-70
2021/04/18 14:20:28;;;;;;;3.90;2.47;;;;;;;;;;5073633;28;20020;-70
2021/04/18 14:22:54;;;;;;;3.35;2.58;;;;;;;;;;5072269;28;20119;-70
2021/04/18 14:25:20;;;;;;;3.70;2.40;;;;;;;;;;5072013;28;20025;-70
2021/04/18 14:27:46;;;;;;;2.65;2.05;;;;;;;;;;5072344;28;20126;-70
2021/04/18 14:30:13;;;;;;;3.67;1.92;;;;;;;;;;5068745;28;20033;-70
2021/04/18 14:32:41;;;;;;;3.28;1.98;;;;;;;;;;5091399;28;20082;-70
2021/04/18 14:35:08;;;;;;;3.60;2.10;;;;;;;;;;5071713;28;20017;-69
2021/04/18 14:37:34;;;;;;;2.78;2.03;;;;;;;;;;5071850;28;20055;-70